Time;durP1;ratioP1;P1;durP2;ratioP2;P2;SDS_P1;SDS_P2;PMS_P1;PMS_P2;Temp;Humidity;BMP_temperature;BMP_pressure;BME280_temperature;BME280_humidity;BME280_pressure;Samples;Min_cycle;Max_cycle;Signal;HPM_P1;HPM_P2
2021/08/17 00:01:02;;;;;;;;;;;24.70;44.40;;;;;;1509848;77;1139;-63
2021/08/17 00:03:03;;;;;;;;;;;24.70;44.40;;;;;;1515094;77;762;-63
2021/08/17 00:05:06;;;;;;;;;;;24.70;44.20;;;;;;1525205;77;783;-62
2021/08/17 00:07:08;;;;;;;;;;;24.70;44.20;;;;;;1519227;77;778;-63
2021/08/17 00:09:10;;;;;;;;;;;24.70;44.20;;;;;;1509717;77;702;-61
2021/08/17 00:11:12;;;;;;;;;;;24.70;44.20;;;;;;1504813;77;1935;-63
2021/08/17 00:13:13;;;;;;;;;;;24.70;44.20;;;;;;1503839;77;680;-61
2021/08/17 00:15:16;;;;;;;;;;;24.70;44.20;;;;;;1509907;77;769;-62
2021/08/17 00:17:17;;;;;;;;;;;24.70;44.10;;;;;;1500956;77;846;-62
2021/08/17 00:19:19;;;;;;;;;;;24.70;44.10;;;;;;1508351;77;758;-63
2021/08/17 00:21:21;;;;;;;;;;;24.70;44.20;;;;;;1502026;77;1096;-62
2021/08/17 00:23:23;;;;;;;;;;;24.70;44.10;;;;;;1494928;77;841;-59
2021/08/17 00:25:25;;;;;;;;;;;24.60;44.00;;;;;;1507764;77;717;-61
2021/08/17 00:27:27;;;;;;;;;;;24.70;44.10;;;;;;1514067;77;792;-61
2021/08/17 00:29:29;;;;;;;;;;;24.70;44.20;;;;;;1507659;77;796;-62
2021/08/17 00:31:31;;;;;;;;;;;24.70;44.20;;;;;;1521704;77;1945;-60
2021/08/17 00:33:32;;;;;;;;;;;24.70;44.20;;;;;;1513652;77;724;-63
2021/08/17 00:35:35;;;;;;;;;;;24.70;44.20;;;;;;1516389;77;822;-62
2021/08/17 00:37:37;;;;;;;;;;;24.70;44.30;;;;;;1517380;77;816;-63
2021/08/17 00:39:39;;;;;;;;;;;24.70;44.30;;;;;;1508369;77;747;-63
2021/08/17 00:41:41;;;;;;;;;;;24.80;44.30;;;;;;1507004;74;224876;-56
2021/08/17 00:43:43;;;;;;;;;;;24.70;44.40;;;;;;1551213;75;1227;-57
2021/08/17 00:45:45;;;;;;;;;;;24.70;44.40;;;;;;1519968;77;680;-56
2021/08/17 00:47:47;;;;;;;;;;;24.70;44.40;;;;;;1510057;77;668;-57
2021/08/17 00:49:49;;;;;;;;;;;24.60;44.30;;;;;;1515982;77;706;-59
2021/08/17 00:51:54;;;;;;;;;;;24.70;44.40;;;;;;1520476;77;1938;-60
2021/08/17 00:53:56;;;;;;;;;;;24.70;44.40;;;;;;1517550;77;1149;-58
2021/08/17 00:55:58;;;;;;;;;;;24.70;44.40;;;;;;1510059;77;672;-58
2021/08/17 00:58:00;;;;;;;;;;;24.70;44.40;;;;;;1514229;77;741;-57
2021/08/17 01:00:03;;;;;;;;;;;24.60;44.30;;;;;;1521166;77;713;-60
2021/08/17 01:02:05;;;;;;;;;;;24.70;44.60;;;;;;1490330;78;1419;-58
2021/08/17 01:04:08;;;;;;;;;;;24.70;44.60;;;;;;1516085;77;1134;-57
2021/08/17 01:06:10;;;;;;;;;;;24.70;44.50;;;;;;1512017;77;1089;-59
2021/08/17 01:08:12;;;;;;;;;;;24.70;44.60;;;;;;1514605;77;680;-60
2021/08/17 01:10:14;;;;;;;;;;;24.60;44.40;;;;;;1520751;77;1925;-58
2021/08/17 01:12:15;;;;;;;;;;;24.70;44.50;;;;;;1519146;77;769;-58
2021/08/17 01:14:20;;;;;;;;;;;24.70;44.60;;;;;;1520155;77;1087;-58
2021/08/17 01:16:22;;;;;;;;;;;24.70;44.50;;;;;;1509980;77;1536;-58
2021/08/17 01:18:24;;;;;;;;;;;24.60;44.40;;;;;;1520937;77;746;-58
2021/08/17 01:20:26;;;;;;;;;;;24.70;44.60;;;;;;1509026;77;678;-59
2021/08/17 01:22:28;;;;;;;;;;;24.60;44.40;;;;;;1520657;77;1135;-60
2021/08/17 01:24:30;;;;;;;;;;;24.70;44.60;;;;;;1516491;77;701;-57
2021/08/17 01:26:32;;;;;;;;;;;24.70;44.50;;;;;;1502990;77;804;-57
2021/08/17 01:28:34;;;;;;;;;;;24.70;44.60;;;;;;1515448;77;738;-56
2021/08/17 01:30:36;;;;;;;;;;;24.70;44.60;;;;;;1511578;77;1935;-59
2021/08/17 01:32:37;;;;;;;;;;;24.70;44.60;;;;;;1520135;77;1143;-60
2021/08/17 01:34:39;;;;;;;;;;;24.70;44.60;;;;;;1520256;77;761;-60
2021/08/17 01:36:41;;;;;;;;;;;24.70;44.60;;;;;;1498253;77;790;-60
2021/08/17 01:38:47;;;;;;;;;;;24.70;44.70;;;;;;1511171;77;797;-60
2021/08/17 01:40:49;;;;;;;;;;;24.70;44.60;;;;;;1508509;77;769;-58
2021/08/17 01:42:51;;;;;;;;;;;24.70;44.60;;;;;;1508148;77;1128;-57
2021/08/17 01:44:55;;;;;;;;;;;24.70;44.60;;;;;;1505593;77;829;-57
2021/08/17 01:46:57;;;;;;;;;;;24.70;44.60;;;;;;1505046;77;772;-59
2021/08/17 01:48:58;;;;;;;;;;;24.60;44.50;;;;;;1511365;77;796;-59
2021/08/17 01:51:01;;;;;;;;;;;24.60;44.20;;;;;;1511550;77;1942;-60
2021/08/17 01:53:03;;;;;;;;;;;24.60;44.00;;;;;;1508970;77;1113;-60
2021/08/17 01:55:07;;;;;;;;;;;24.60;43.70;;;;;;1509253;77;680;-58
2021/08/17 01:57:08;;;;;;;;;;;24.60;43.60;;;;;;1513779;77;1479;-58
2021/08/17 01:59:13;;;;;;;;;;;24.60;43.60;;;;;;1511176;77;758;-60
2021/08/17 02:01:14;;;;;;;;;;;24.60;43.60;;;;;;1512832;77;1621;-57
2021/08/17 02:03:16;;;;;;;;;;;24.60;43.50;;;;;;1507911;77;1159;-57
2021/08/17 02:05:20;;;;;;;;;;;24.50;43.50;;;;;;1505623;77;782;-60
2021/08/17 02:07:21;;;;;;;;;;;24.50;43.40;;;;;;1505865;77;1689;-56
2021/08/17 02:09:23;;;;;;;;;;;24.70;43.50;;;;;;1510219;77;797;-58
2021/08/17 02:11:25;;;;;;;;;;;24.50;43.40;;;;;;1504226;77;1934;-56
2021/08/17 02:13:28;;;;;;;;;;;24.60;43.40;;;;;;1513430;77;1140;-57
2021/08/17 02:15:31;;;;;;;;;;;24.60;43.40;;;;;;1520794;77;783;-59
2021/08/17 02:17:32;;;;;;;;;;;24.50;43.30;;;;;;1520864;77;775;-60
2021/08/17 02:19:34;;;;;;;;;;;24.60;43.20;;;;;;1509525;77;812;-59
2021/08/17 02:21:36;;;;;;;;;;;24.50;43.10;;;;;;1509491;77;698;-55
2021/08/17 02:23:39;;;;;;;;;;;24.50;42.80;;;;;;1517195;77;1094;-57
2021/08/17 02:25:41;;;;;;;;;;;24.50;42.80;;;;;;1510464;77;697;-58
2021/08/17 02:27:42;;;;;;;;;;;24.50;42.70;;;;;;1518913;77;857;-60
2021/08/17 02:29:44;;;;;;;;;;;24.50;42.60;;;;;;1515267;77;783;-58
2021/08/17 02:31:46;;;;;;;;;;;24.50;42.50;;;;;;1519506;77;1961;-58
2021/08/17 02:33:48;;;;;;;;;;;24.50;42.30;;;;;;1516425;77;1140;-57
2021/08/17 02:35:50;;;;;;;;;;;24.50;42.40;;;;;;1512737;77;784;-57
2021/08/17 02:37:52;;;;;;;;;;;24.50;42.40;;;;;;1507295;77;725;-56
2021/08/17 02:39:54;;;;;;;;;;;24.50;42.40;;;;;;1508457;77;736;-59
2021/08/17 02:41:55;;;;;;;;;;;24.50;42.40;;;;;;1508073;77;810;-60
2021/08/17 02:43:57;;;;;;;;;;;24.50;42.50;;;;;;1516625;77;1230;-60
2021/08/17 02:45:59;;;;;;;;;;;24.50;42.50;;;;;;1511935;77;818;-58
2021/08/17 02:48:01;;;;;;;;;;;24.40;42.40;;;;;;1511544;77;930;-57
2021/08/17 02:50:03;;;;;;;;;;;24.50;42.50;;;;;;1510900;77;757;-58
2021/08/17 02:52:06;;;;;;;;;;;24.50;42.40;;;;;;1504550;77;1926;-58
2021/08/17 02:54:08;;;;;;;;;;;24.50;42.40;;;;;;1508934;77;1145;-60
2021/08/17 02:56:10;;;;;;;;;;;24.50;42.30;;;;;;1507824;77;745;-58
2021/08/17 02:58:11;;;;;;;;;;;24.50;42.30;;;;;;1512961;77;699;-56
2021/08/17 03:00:14;;;;;;;;;;;24.50;42.30;;;;;;1506856;77;738;-60
2021/08/17 03:02:16;;;;;;;;;;;24.50;42.30;;;;;;1508181;77;743;-58
2021/08/17 03:04:17;;;;;;;;;;;24.50;42.30;;;;;;1506346;77;1105;-60
2021/08/17 03:06:19;;;;;;;;;;;24.40;42.20;;;;;;1518292;77;822;-60
2021/08/17 03:08:21;;;;;;;;;;;24.50;42.20;;;;;;1510360;77;775;-60
2021/08/17 03:10:23;;;;;;;;;;;24.40;42.10;;;;;;1500921;77;696;-59
2021/08/17 03:12:25;;;;;;;;;;;24.40;42.20;;;;;;1515730;77;1950;-58
2021/08/17 03:14:27;;;;;;;;;;;24.40;42.10;;;;;;1519292;77;791;-58
2021/08/17 03:16:29;;;;;;;;;;;24.40;42.20;;;;;;1499933;77;732;-57
2021/08/17 03:18:31;;;;;;;;;;;24.50;42.20;;;;;;1504479;77;699;-57
2021/08/17 03:20:33;;;;;;;;;;;24.40;42.10;;;;;;1508614;77;771;-60
2021/08/17 03:22:35;;;;;;;;;;;24.40;42.10;;;;;;1501222;77;1147;-60
2021/08/17 03:24:37;;;;;;;;;;;24.40;42.10;;;;;;1511385;77;841;-57
2021/08/17 03:26:39;;;;;;;;;;;24.40;42.10;;;;;;1508454;77;819;-55
2021/08/17 03:28:41;;;;;;;;;;;24.40;42.10;;;;;;1502845;77;740;-60
2021/08/17 03:30:43;;;;;;;;;;;24.40;42.10;;;;;;1518064;77;790;-60
2021/08/17 03:32:45;;;;;;;;;;;24.40;42.10;;;;;;1511134;77;1930;-59
2021/08/17 03:34:47;;;;;;;;;;;24.40;42.20;;;;;;1501372;77;784;-58
2021/08/17 03:36:49;;;;;;;;;;;24.50;42.10;;;;;;1509023;77;736;-59
2021/08/17 03:38:50;;;;;;;;;;;24.40;42.10;;;;;;1502709;77;780;-58
2021/08/17 03:40:52;;;;;;;;;;;24.40;42.10;;;;;;1505308;77;775;-60
2021/08/17 03:42:54;;;;;;;;;;;24.40;42.10;;;;;;1503728;77;1150;-60
2021/08/17 03:44:59;;;;;;;;;;;24.40;42.10;;;;;;1509853;77;817;-60
2021/08/17 03:47:01;;;;;;;;;;;24.40;42.10;;;;;;1509347;77;751;-60
2021/08/17 03:49:03;;;;;;;;;;;24.40;42.10;;;;;;1507492;77;726;-60
2021/08/17 03:51:05;;;;;;;;;;;24.40;42.20;;;;;;1505256;77;861;-59
2021/08/17 03:53:06;;;;;;;;;;;24.40;42.20;;;;;;1507943;77;1942;-58
2021/08/17 03:55:09;;;;;;;;;;;24.40;42.10;;;;;;1503031;77;726;-60
2021/08/17 03:57:11;;;;;;;;;;;24.40;42.10;;;;;;1505579;77;716;-58
2021/08/17 03:59:12;;;;;;;;;;;24.40;42.10;;;;;;1511951;77;793;-59
2021/08/17 04:01:14;;;;;;;;;;;24.40;42.10;;;;;;1510554;77;716;-57
2021/08/17 04:03:16;;;;;;;;;;;24.40;42.10;;;;;;1507020;77;1174;-59
2021/08/17 04:05:18;;;;;;;;;;;24.50;42.10;;;;;;1512857;77;666;-58
2021/08/17 04:07:20;;;;;;;;;;;24.40;42.10;;;;;;1510606;77;789;-60
2021/08/17 04:09:22;;;;;;;;;;;24.40;42.00;;;;;;1513011;77;756;-59
2021/08/17 04:11:24;;;;;;;;;;;24.40;42.10;;;;;;1509321;77;1950;-60
2021/08/17 04:13:26;;;;;;;;;;;24.40;42.10;;;;;;1509947;77;1084;-58
2021/08/17 04:15:28;;;;;;;;;;;24.40;42.10;;;;;;1508848;77;773;-59
2021/08/17 04:17:30;;;;;;;;;;;24.40;42.10;;;;;;1511579;77;680;-60
2021/08/17 04:19:31;;;;;;;;;;;24.30;42.10;;;;;;1503185;77;744;-60
2021/08/17 04:21:33;;;;;;;;;;;24.40;42.10;;;;;;1512362;77;722;-60
2021/08/17 04:23:35;;;;;;;;;;;24.40;42.20;;;;;;1512459;77;1144;-60
2021/08/17 04:25:37;;;;;;;;;;;24.40;42.10;;;;;;1510459;77;782;-58
2021/08/17 04:27:39;;;;;;;;;;;24.30;42.10;;;;;;1519269;77;771;-60
2021/08/17 04:29:41;;;;;;;;;;;24.40;42.20;;;;;;1520707;77;779;-59
2021/08/17 04:31:43;;;;;;;;;;;24.40;42.20;;;;;;1519483;77;1921;-60
2021/08/17 04:33:45;;;;;;;;;;;24.40;42.10;;;;;;1510681;77;1139;-59
2021/08/17 04:35:46;;;;;;;;;;;24.40;42.10;;;;;;1519949;77;731;-60
2021/08/17 04:37:49;;;;;;;;;;;24.40;42.10;;;;;;1503612;77;710;-58
2021/08/17 04:39:50;;;;;;;;;;;24.40;42.10;;;;;;1519050;77;761;-60
2021/08/17 04:41:52;;;;;;;;;;;24.40;42.10;;;;;;1515332;77;683;-60
2021/08/17 04:43:54;;;;;;;;;;;24.40;42.10;;;;;;1507626;77;1117;-57
2021/08/17 04:45:56;;;;;;;;;;;24.30;42.00;;;;;;1520508;77;745;-60
2021/08/17 04:47:58;;;;;;;;;;;24.30;42.00;;;;;;1517734;77;717;-60
2021/08/17 04:50:00;;;;;;;;;;;24.40;42.00;;;;;;1510849;77;804;-57
2021/08/17 04:52:02;;;;;;;;;;;24.40;42.00;;;;;;1508611;77;1934;-58
2021/08/17 04:54:04;;;;;;;;;;;24.30;41.90;;;;;;1511863;77;1127;-59
2021/08/17 04:56:06;;;;;;;;;;;24.40;41.90;;;;;;1517981;77;638;-57
2021/08/17 04:58:08;;;;;;;;;;;24.30;41.90;;;;;;1510139;77;798;-57
2021/08/17 05:00:11;;;;;;;;;;;24.30;41.90;;;;;;1511727;77;654;-58
2021/08/17 05:02:12;;;;;;;;;;;24.30;41.90;;;;;;1515489;77;760;-60
2021/08/17 05:04:14;;;;;;;;;;;24.40;41.90;;;;;;1508768;77;1127;-55
2021/08/17 05:06:16;;;;;;;;;;;24.30;41.90;;;;;;1517427;77;744;-58
2021/08/17 05:08:18;;;;;;;;;;;24.40;41.80;;;;;;1503145;77;813;-55
2021/08/17 05:10:21;;;;;;;;;;;24.30;41.80;;;;;;1509257;77;809;-60
2021/08/17 05:12:22;;;;;;;;;;;24.30;41.80;;;;;;1510426;77;1932;-56
2021/08/17 05:14:24;;;;;;;;;;;24.40;41.70;;;;;;1511537;77;749;-59
2021/08/17 05:16:26;;;;;;;;;;;24.40;41.80;;;;;;1516740;77;760;-60
2021/08/17 05:18:32;;;;;;;;;;;24.40;41.70;;;;;;1514778;77;731;-60
2021/08/17 05:20:32;;;;;;;;;;;24.40;41.70;;;;;;1500289;77;1719;-58
2021/08/17 05:22:33;;;;;;;;;;;24.30;41.80;;;;;;1521811;77;1134;-58
2021/08/17 05:24:35;;;;;;;;;;;24.30;41.80;;;;;;1513283;77;809;-58
2021/08/17 05:26:37;;;;;;;;;;;24.30;41.80;;;;;;1522405;77;734;-57
2021/08/17 05:28:39;;;;;;;;;;;24.40;41.70;;;;;;1516030;77;725;-59
2021/08/17 05:30:41;;;;;;;;;;;24.30;41.80;;;;;;1523678;77;713;-57
2021/08/17 05:32:43;;;;;;;;;;;24.30;41.70;;;;;;1539824;77;1944;-58
2021/08/17 05:34:45;;;;;;;;;;;24.30;41.80;;;;;;1514797;77;715;-55
2021/08/17 05:36:47;;;;;;;;;;;24.20;41.60;;;;;;1514849;77;699;-60
2021/08/17 05:38:49;;;;;;;;;;;24.40;41.80;;;;;;1519132;77;673;-57
2021/08/17 05:40:50;;;;;;;;;;;24.30;41.80;;;;;;1520932;77;787;-58
2021/08/17 05:42:52;;;;;;;;;;;24.40;41.70;;;;;;1520595;77;1135;-56
2021/08/17 05:44:54;;;;;;;;;;;24.40;41.80;;;;;;1516661;77;782;-58
2021/08/17 05:46:56;;;;;;;;;;;24.40;41.70;;;;;;1520816;77;832;-58
2021/08/17 05:48:58;;;;;;;;;;;24.30;41.70;;;;;;1518571;77;701;-59
2021/08/17 05:51:00;;;;;;;;;;;24.40;41.80;;;;;;1516795;77;876;-60
2021/08/17 05:53:02;;;;;;;;;;;24.30;41.70;;;;;;1520533;77;1941;-58
2021/08/17 05:55:05;;;;;;;;;;;24.40;41.80;;;;;;1508382;77;590;-57
2021/08/17 05:57:07;;;;;;;;;;;24.30;41.80;;;;;;1508986;77;774;-58
2021/08/17 05:59:09;;;;;;;;;;;24.30;41.80;;;;;;1519464;77;735;-60
2021/08/17 06:01:10;;;;;;;;;;;24.30;41.80;;;;;;1520863;77;736;-59
2021/08/17 06:03:12;;;;;;;;;;;24.40;41.70;;;;;;1515198;77;1119;-60
2021/08/17 06:05:14;;;;;;;;;;;24.40;41.70;;;;;;1516783;77;943;-58
2021/08/17 06:07:19;;;;;;;;;;;24.30;41.60;;;;;;1508557;77;688;-56
2021/08/17 06:09:21;;;;;;;;;;;24.40;41.60;;;;;;1509692;77;765;-58
2021/08/17 06:11:23;;;;;;;;;;;24.30;41.50;;;;;;1506212;77;725;-58
2021/08/17 06:13:26;;;;;;;;;;;24.30;41.50;;;;;;1520856;77;1944;-57
2021/08/17 06:15:28;;;;;;;;;;;24.40;41.50;;;;;;1520803;77;951;-60
2021/08/17 06:17:30;;;;;;;;;;;24.40;41.50;;;;;;1510123;77;771;-60
2021/08/17 06:19:32;;;;;;;;;;;24.30;41.50;;;;;;1510180;77;777;-59
2021/08/17 06:21:35;;;;;;;;;;;24.40;41.50;;;;;;1509219;77;715;-59
2021/08/17 06:23:36;;;;;;;;;;;24.30;41.50;;;;;;1519328;77;1135;-60
2021/08/17 06:25:38;;;;;;;;;;;24.30;41.50;;;;;;1506090;77;694;-58
2021/08/17 06:27:40;;;;;;;;;;;24.40;41.50;;;;;;1515333;77;746;-59
2021/08/17 06:29:42;;;;;;;;;;;24.40;41.50;;;;;;1518461;77;767;-58
2021/08/17 06:31:45;;;;;;;;;;;24.30;41.40;;;;;;1514189;77;805;-58
2021/08/17 06:33:46;;;;;;;;;;;24.30;41.30;;;;;;1516403;77;1932;-56
2021/08/17 06:35:48;;;;;;;;;;;24.40;41.30;;;;;;1514526;77;658;-59
2021/08/17 06:37:50;;;;;;;;;;;24.40;41.30;;;;;;1515207;77;748;-56
2021/08/17 06:39:52;;;;;;;;;;;24.30;41.40;;;;;;1515978;77;741;-57
2021/08/17 06:41:54;;;;;;;;;;;24.40;41.40;;;;;;1514667;77;743;-58
2021/08/17 06:43:56;;;;;;;;;;;24.40;41.40;;;;;;1520834;77;1139;-59
2021/08/17 06:45:58;;;;;;;;;;;24.40;41.40;;;;;;1509098;77;786;-59
2021/08/17 06:48:00;;;;;;;;;;;24.40;41.50;;;;;;1520881;77;700;-60
2021/08/17 06:50:02;;;;;;;;;;;24.40;41.40;;;;;;1519019;77;801;-60
2021/08/17 06:52:04;;;;;;;;;;;24.40;41.40;;;;;;1512920;77;727;-60
2021/08/17 06:54:06;;;;;;;;;;;24.40;41.40;;;;;;1516147;77;1936;-58
2021/08/17 06:56:08;;;;;;;;;;;24.40;41.30;;;;;;1529327;77;690;-57
2021/08/17 06:58:13;;;;;;;;;;;24.40;41.30;;;;;;1521431;77;793;-56
2021/08/17 07:00:13;;;;;;;;;;;24.40;41.20;;;;;;1519085;77;1653;-60
2021/08/17 07:02:15;;;;;;;;;;;24.40;41.20;;;;;;1499354;77;728;-58
2021/08/17 07:04:17;;;;;;;;;;;24.40;41.20;;;;;;1517973;77;1079;-60
2021/08/17 07:06:19;;;;;;;;;;;24.40;41.10;;;;;;1521650;77;785;-60
2021/08/17 07:08:21;;;;;;;;;;;24.40;41.10;;;;;;1516792;77;810;-58
2021/08/17 07:10:23;;;;;;;;;;;24.40;41.00;;;;;;1512121;77;774;-60
2021/08/17 07:12:24;;;;;;;;;;;24.40;41.10;;;;;;1513771;77;1120;-60
2021/08/17 07:14:26;;;;;;;;;;;24.40;41.10;;;;;;1521047;77;838;-60
2021/08/17 07:16:28;;;;;;;;;;;24.40;41.00;;;;;;1520957;77;751;-59
2021/08/17 07:18:30;;;;;;;;;;;24.40;41.00;;;;;;1517989;77;772;-59
2021/08/17 07:20:32;;;;;;;;;;;24.40;41.00;;;;;;1506421;77;741;-59
2021/08/17 07:22:34;;;;;;;;;;;24.30;40.90;;;;;;1512492;77;1131;-59
2021/08/17 07:24:36;;;;;;;;;;;24.30;40.70;;;;;;1511957;77;840;-58
2021/08/17 07:26:38;;;;;;;;;;;24.40;40.70;;;;;;1511403;77;756;-58
2021/08/17 07:28:40;;;;;;;;;;;24.40;40.50;;;;;;1515681;77;735;-60
2021/08/17 07:30:42;;;;;;;;;;;24.40;40.50;;;;;;1511850;77;756;-58
2021/08/17 07:32:44;;;;;;;;;;;24.40;40.50;;;;;;1517953;77;1956;-59
2021/08/17 07:34:46;;;;;;;;;;;24.40;40.50;;;;;;1514668;77;879;-60
2021/08/17 07:36:48;;;;;;;;;;;24.30;40.40;;;;;;1509228;77;709;-59
2021/08/17 07:38:49;;;;;;;;;;;24.40;40.40;;;;;;1512510;77;734;-59
2021/08/17 07:40:51;;;;;;;;;;;24.40;40.50;;;;;;1507833;77;727;-60
2021/08/17 07:42:53;;;;;;;;;;;24.40;40.50;;;;;;1505426;77;1135;-59
2021/08/17 07:44:55;;;;;;;;;;;24.40;40.40;;;;;;1520872;77;765;-58
2021/08/17 07:46:57;;;;;;;;;;;24.40;40.30;;;;;;1515414;77;807;-57
2021/08/17 07:48:59;;;;;;;;;;;24.40;40.20;;;;;;1517125;77;797;-57
2021/08/17 07:51:01;;;;;;;;;;;24.40;40.20;;;;;;1509276;77;763;-56
2021/08/17 07:53:03;;;;;;;;;;;24.40;40.10;;;;;;1510257;77;1948;-60
2021/08/17 07:55:05;;;;;;;;;;;24.40;40.10;;;;;;1514677;77;678;-59
2021/08/17 07:57:07;;;;;;;;;;;24.40;40.00;;;;;;1520963;77;692;-60
2021/08/17 07:59:09;;;;;;;;;;;24.40;39.90;;;;;;1520143;77;742;-56
2021/08/17 08:01:12;;;;;;;;;;;24.40;39.70;;;;;;1508756;77;723;-60
2021/08/17 08:03:14;;;;;;;;;;;24.40;39.60;;;;;;1515190;77;1136;-55
2021/08/17 08:05:16;;;;;;;;;;;24.30;39.50;;;;;;1511613;77;717;-59
2021/08/17 08:07:17;;;;;;;;;;;24.40;39.40;;;;;;1516854;77;779;-58
2021/08/17 08:09:19;;;;;;;;;;;24.30;39.20;;;;;;1506104;77;783;-58
2021/08/17 08:11:21;;;;;;;;;;;24.40;39.20;;;;;;1509755;77;729;-58
2021/08/17 08:13:23;;;;;;;;;;;24.40;39.20;;;;;;1520612;77;1961;-58
2021/08/17 08:15:25;;;;;;;;;;;24.40;39.20;;;;;;1520515;77;782;-58
2021/08/17 08:17:27;;;;;;;;;;;24.40;39.20;;;;;;1516850;77;766;-58
2021/08/17 08:19:29;;;;;;;;;;;24.30;39.20;;;;;;1529869;77;790;-56
2021/08/17 08:21:32;;;;;;;;;;;24.40;39.20;;;;;;1508584;77;655;-60
2021/08/17 08:23:36;;;;;;;;;;;24.40;39.20;;;;;;1514020;77;1178;-60
2021/08/17 08:25:40;;;;;;;;;;;24.40;39.20;;;;;;1521049;77;718;-60
2021/08/17 08:27:42;;;;;;;;;;;24.40;39.10;;;;;;1517619;77;791;-57
2021/08/17 08:29:44;;;;;;;;;;;24.40;39.10;;;;;;1511754;77;810;-57
2021/08/17 08:31:45;;;;;;;;;;;24.40;39.10;;;;;;1533203;77;772;-56
2021/08/17 08:33:48;;;;;;;;;;;24.30;39.10;;;;;;1537837;77;1952;-59
2021/08/17 08:35:50;;;;;;;;;;;24.40;39.10;;;;;;1523199;77;777;-59
2021/08/17 08:37:51;;;;;;;;;;;24.40;39.20;;;;;;1509282;77;729;-60
2021/08/17 08:39:55;;;;;;;;;;;24.40;39.10;;;;;;1524647;77;765;-58
2021/08/17 08:41:57;;;;;;;;;;;24.40;39.10;;;;;;1510457;77;782;-57
2021/08/17 08:43:58;;;;;;;;;;;24.50;39.20;;;;;;1515697;77;1143;-56
2021/08/17 08:46:00;;;;;;;;;;;24.40;39.10;;;;;;1520972;77;740;-58
2021/08/17 08:48:02;;;;;;;;;;;24.40;39.10;;;;;;1514229;77;729;-58
2021/08/17 08:50:04;;;;;;;;;;;24.40;39.10;;;;;;1520320;77;749;-58
2021/08/17 08:52:06;;;;;;;;;;;24.40;39.00;;;;;;1514797;77;761;-56
2021/08/17 08:54:08;;;;;;;;;;;24.50;39.20;;;;;;1509198;77;1942;-57
2021/08/17 08:56:10;;;;;;;;;;;24.50;39.20;;;;;;1500517;77;712;-58
2021/08/17 08:58:12;;;;;;;;;;;24.40;39.10;;;;;;1526272;77;689;-58
2021/08/17 09:00:14;;;;;;;;;;;24.40;39.10;;;;;;1520542;77;753;-56
2021/08/17 09:02:19;;;;;;;;;;;24.40;39.10;;;;;;1522718;77;694;-56
2021/08/17 09:04:22;;;;;;;;;;;24.40;39.10;;;;;;1511906;77;1073;-58
2021/08/17 09:06:25;;;;;;;;;;;24.40;39.10;;;;;;1517088;77;1995;-56
2021/08/17 09:08:32;;;;;;;;;;;24.40;39.10;;;;;;1512819;77;779;-60
2021/08/17 09:10:31;;;;;;;;;;;24.50;39.20;;;;;;1507230;77;1545;-57
2021/08/17 09:12:35;;;;;;;;;;;24.40;39.10;;;;;;1512175;77;1139;-60
2021/08/17 09:14:37;;;;;;;;;;;24.40;39.10;;;;;;1508641;77;1955;-60
2021/08/17 09:16:38;;;;;;;;;;;24.40;39.20;;;;;;1513911;77;828;-60
2021/08/17 09:18:40;;;;;;;;;;;24.50;39.20;;;;;;1514282;77;783;-60
2021/08/17 09:20:43;;;;;;;;;;;24.50;39.20;;;;;;1519567;77;761;-60
2021/08/17 09:22:45;;;;;;;;;;;24.40;39.00;;;;;;1512012;77;1149;-58
2021/08/17 09:24:48;;;;;;;;;;;24.50;39.10;;;;;;1516194;77;811;-60
2021/08/17 09:26:51;;;;;;;;;;;24.50;39.10;;;;;;1514888;77;749;-60
2021/08/17 09:28:57;;;;;;;;;;;24.40;39.00;;;;;;1517494;77;797;-59
2021/08/17 09:30:59;;;;;;;;;;;24.50;39.10;;;;;;1504687;77;690;-59
2021/08/17 09:33:01;;;;;;;;;;;24.50;39.20;;;;;;1498233;77;1089;-56
2021/08/17 09:35:03;;;;;;;;;;;24.40;39.10;;;;;;1517187;77;1934;-58
2021/08/17 09:37:11;;;;;;;;;;;24.50;39.20;;;;;;1502184;77;655;-59
2021/08/17 09:39:09;;;;;;;;;;;24.40;39.10;;;;;;1517462;77;1564;-60
2021/08/17 09:41:24;;;;;;;;;;;24.50;39.20;;;;;;1514401;77;727;-61
2021/08/17 09:43:26;;;;;;;;;;;24.40;39.10;;;;;;1515555;77;1120;-58
2021/08/17 09:45:28;;;;;;;;;;;24.50;38.90;;;;;;1515297;77;795;-59
2021/08/17 09:47:30;;;;;;;;;;;24.40;38.80;;;;;;1483188;78;1251;-58
2021/08/17 09:49:32;;;;;;;;;;;24.50;38.80;;;;;;1510258;77;798;-58
2021/08/17 09:51:34;;;;;;;;;;;24.50;38.70;;;;;;1508064;77;769;-58
2021/08/17 09:53:36;;;;;;;;;;;24.40;38.60;;;;;;1501273;77;1948;-60
2021/08/17 09:55:42;;;;;;;;;;;24.40;38.60;;;;;;1510586;77;761;-60
2021/08/17 09:57:44;;;;;;;;;;;24.50;38.70;;;;;;1515811;77;786;-56
2021/08/17 09:59:46;;;;;;;;;;;24.40;38.60;;;;;;1510489;77;743;-60
2021/08/17 10:01:48;;;;;;;;;;;24.40;38.60;;;;;;1508350;77;735;-58
2021/08/17 10:03:50;;;;;;;;;;;24.40;38.60;;;;;;1507643;77;1166;-57
2021/08/17 10:05:52;;;;;;;;;;;24.50;38.70;;;;;;1518292;77;879;-60
2021/08/17 10:07:54;;;;;;;;;;;24.50;38.70;;;;;;1516690;77;740;-59
2021/08/17 10:09:56;;;;;;;;;;;24.50;38.70;;;;;;1510731;77;738;-60
2021/08/17 10:11:58;;;;;;;;;;;24.50;38.60;;;;;;1512233;77;791;-59
2021/08/17 10:14:00;;;;;;;;;;;24.50;38.60;;;;;;1520723;77;1949;-58
2021/08/17 10:16:01;;;;;;;;;;;24.40;38.40;;;;;;1520874;77;717;-59
2021/08/17 10:18:03;;;;;;;;;;;24.40;38.50;;;;;;1515418;77;717;-59
2021/08/17 10:20:06;;;;;;;;;;;24.40;38.40;;;;;;1509332;77;703;-57
2021/08/17 10:22:08;;;;;;;;;;;24.40;38.20;;;;;;1510297;77;829;-59
2021/08/17 10:24:25;;;;;;;;;;;24.40;38.20;;;;;;1520821;77;1126;-58
2021/08/17 10:26:28;;;;;;;;;;;24.40;38.30;;;;;;1509239;77;706;-59
2021/08/17 10:28:37;;;;;;;;;;;24.30;38.30;;;;;;1515455;77;731;-56
2021/08/17 10:30:38;;;;;;;;;;;24.40;38.40;;;;;;1518371;77;775;-60
2021/08/17 10:32:42;;;;;;;;;;;24.40;38.40;;;;;;1520743;77;1143;-58
2021/08/17 10:34:44;;;;;;;;;;;24.40;38.40;;;;;;1514868;77;1956;-58
2021/08/17 10:36:46;;;;;;;;;;;24.40;38.30;;;;;;1509271;77;750;-59
2021/08/17 10:38:48;;;;;;;;;;;24.40;38.40;;;;;;1508016;77;699;-59
2021/08/17 10:40:52;;;;;;;;;;;24.40;38.40;;;;;;1515509;77;790;-60
2021/08/17 10:42:53;;;;;;;;;;;24.40;38.40;;;;;;1520552;77;1144;-58
2021/08/17 10:44:57;;;;;;;;;;;24.30;38.30;;;;;;1519437;77;888;-59
2021/08/17 10:47:00;;;;;;;;;;;24.40;38.30;;;;;;1503159;77;1793;-59
2021/08/17 10:49:01;;;;;;;;;;;24.40;38.40;;;;;;1515818;77;757;-60
2021/08/17 10:51:03;;;;;;;;;;;24.40;38.30;;;;;;1525244;77;703;-59
2021/08/17 10:53:23;;;;;;;;;;;24.40;38.30;;;;;;1520715;77;1154;-60
2021/08/17 10:55:26;;;;;;;;;;;24.40;38.30;;;;;;1510543;77;1926;-58
2021/08/17 10:57:28;;;;;;;;;;;24.40;38.30;;;;;;1513023;77;795;-59
2021/08/17 10:59:32;;;;;;;;;;;24.40;38.30;;;;;;1520858;77;708;-59
2021/08/17 11:01:38;;;;;;;;;;;24.40;38.20;;;;;;1523185;77;1826;-60
2021/08/17 11:03:41;;;;;;;;;;;24.40;38.20;;;;;;1516956;77;1147;-59
2021/08/17 11:05:53;;;;;;;;;;;24.40;38.10;;;;;;1525360;77;758;-59
2021/08/17 11:07:54;;;;;;;;;;;24.40;38.10;;;;;;1515800;77;736;-58
2021/08/17 11:09:57;;;;;;;;;;;24.30;38.10;;;;;;1508308;78;728;-60
2021/08/17 11:11:59;;;;;;;;;;;24.40;38.10;;;;;;1512603;77;735;-60
2021/08/17 11:14:11;;;;;;;;;;;24.40;38.20;;;;;;1520775;77;1956;-58
2021/08/17 11:16:13;;;;;;;;;;;24.40;38.20;;;;;;1511693;77;817;-60
2021/08/17 11:18:15;;;;;;;;;;;24.40;38.20;;;;;;1520854;77;759;-59
2021/08/17 11:20:17;;;;;;;;;;;24.40;38.30;;;;;;1521081;77;806;-60
2021/08/17 11:22:20;;;;;;;;;;;24.40;38.30;;;;;;1520562;77;723;-60
2021/08/17 11:24:23;;;;;;;;;;;24.40;38.30;;;;;;1510929;77;1601;-57
2021/08/17 11:26:31;;;;;;;;;;;24.40;38.30;;;;;;1511965;77;724;-60
2021/08/17 11:28:33;;;;;;;;;;;24.40;38.40;;;;;;1515476;77;712;-60
2021/08/17 11:30:35;;;;;;;;;;;24.40;38.30;;;;;;1520826;77;757;-59
2021/08/17 11:32:40;;;;;;;;;;;24.40;38.30;;;;;;1520305;77;1143;-59
2021/08/17 11:34:42;;;;;;;;;;;24.40;38.30;;;;;;1515502;77;1937;-55
2021/08/17 11:36:54;;;;;;;;;;;24.40;38.20;;;;;;1517794;77;738;-60
2021/08/17 11:38:56;;;;;;;;;;;24.50;38.10;;;;;;1514316;77;852;-60
2021/08/17 11:40:58;;;;;;;;;;;24.30;38.00;;;;;;1492671;78;935;-58
2021/08/17 11:43:01;;;;;;;;;;;24.40;38.10;;;;;;1503829;77;1131;-60
2021/08/17 11:45:04;;;;;;;;;;;24.40;38.00;;;;;;1497244;78;879;-59
2021/08/17 11:47:08;;;;;;;;;;;24.50;38.10;;;;;;1511595;77;671;-59
2021/08/17 11:49:20;;;;;;;;;;;24.40;38.10;;;;;;1509613;77;1047;-60
2021/08/17 11:51:24;;;;;;;;;;;24.40;38.10;;;;;;1484475;78;1124;-60
2021/08/17 11:53:26;;;;;;;;;;;24.40;38.00;;;;;;1513478;77;1187;-60
2021/08/17 11:55:29;;;;;;;;;;;24.30;38.00;;;;;;1518448;77;1919;-60
2021/08/17 11:57:32;;;;;;;;;;;24.30;38.00;;;;;;1516691;77;748;-59
2021/08/17 11:59:41;;;;;;;;;;;24.40;38.00;;;;;;1519820;77;711;-55
2021/08/17 12:01:43;;;;;;;;;;;24.40;38.00;;;;;;1514245;77;816;-60
2021/08/17 12:03:45;;;;;;;;;;;24.30;38.00;;;;;;1518889;77;1132;-58
2021/08/17 12:05:46;;;;;;;;;;;24.30;38.00;;;;;;1525490;77;737;-59
2021/08/17 12:07:49;;;;;;;;;;;24.30;38.10;;;;;;1512535;77;807;-56
2021/08/17 12:09:51;;;;;;;;;;;24.30;38.10;;;;;;1509372;77;693;-58